createdAt,value
2023-03-31T00:02:06.582Z,11.50
2023-03-31T00:04:36.333Z,12.00
2023-03-31T00:07:08.223Z,15.63
2023-03-31T00:09:38.216Z,16.60
2023-03-31T00:12:09.632Z,13.00
2023-03-31T00:14:39.827Z,14.65
2023-03-31T00:17:11.377Z,11.03
2023-03-31T00:19:41.818Z,9.77
2023-03-31T00:22:11.835Z,15.63
2023-03-31T00:24:41.672Z,14.07
2023-03-31T00:27:11.558Z,15.73
2023-03-31T00:29:41.676Z,12.77
2023-03-31T00:32:11.801Z,8.00
2023-03-31T00:34:41.805Z,8.73
2023-03-31T00:37:13.257Z,11.87
2023-03-31T00:39:43.404Z,8.43
2023-03-31T00:42:13.622Z,10.35
2023-03-31T00:45:18.272Z,6.73
2023-03-31T00:47:51.805Z,9.23
2023-03-31T00:50:29.031Z,9.65
2023-03-31T00:53:04.973Z,11.97
2023-03-31T00:55:40.745Z,8.50
2023-03-31T00:58:14.487Z,7.28
2023-03-31T01:00:44.846Z,8.33
2023-03-31T01:03:15.885Z,8.87
2023-03-31T01:05:51.935Z,13.07
2023-03-31T01:08:25.895Z,9.77
2023-03-31T01:11:04.737Z,8.30
2023-03-31T01:13:37.775Z,12.83
2023-03-31T01:16:11.992Z,5.98
2023-03-31T01:18:43.528Z,11.33
2023-03-31T01:21:40.310Z,7.87
2023-03-31T01:24:20.679Z,14.78
2023-03-31T01:27:09.775Z,11.40
2023-03-31T01:29:42.754Z,15.10
2023-03-31T01:32:30.336Z,9.95
2023-03-31T01:35:24.352Z,14.50
2023-03-31T01:38:13.573Z,16.37
2023-03-31T01:41:19.320Z,8.67
2023-03-31T01:44:25.438Z,8.88
2023-03-31T01:46:58.313Z,10.77
2023-03-31T01:49:45.848Z,10.17
2023-03-31T01:52:24.099Z,14.45
2023-03-31T01:55:15.938Z,14.23
2023-03-31T01:57:54.529Z,9.50
2023-03-31T02:00:36.294Z,12.95
2023-03-31T02:03:14.788Z,11.90
2023-03-31T02:05:47.626Z,12.87
2023-03-31T02:08:26.040Z,15.13
2023-03-31T02:10:57.563Z,15.83
2023-03-31T02:13:30.290Z,10.98
2023-03-31T02:16:03.261Z,10.17
2023-03-31T02:18:36.741Z,11.27
2023-03-31T02:21:08.726Z,14.57
2023-03-31T02:23:39.596Z,13.27
2023-03-31T02:26:29.430Z,11.63
2023-03-31T02:29:00.136Z,15.15
2023-03-31T02:31:52.551Z,11.60
2023-03-31T02:34:22.480Z,12.33
2023-03-31T02:36:52.750Z,10.48
2023-03-31T02:39:31.288Z,9.13
2023-03-31T02:42:02.977Z,17.50
2023-03-31T02:44:32.859Z,10.00
2023-03-31T02:47:04.912Z,8.10
2023-03-31T02:49:38.099Z,11.53
2023-03-31T02:52:41.042Z,16.40
2023-03-31T02:55:33.038Z,13.95
2023-03-31T02:58:15.273Z,11.85
2023-03-31T03:01:08.618Z,10.70
2023-03-31T03:03:47.501Z,12.37
2023-03-31T03:06:33.408Z,9.17
2023-03-31T03:09:17.079Z,10.60
2023-03-31T03:12:06.619Z,10.75
2023-03-31T03:14:51.509Z,11.87
2023-03-31T03:17:30.052Z,13.83
2023-03-31T03:20:04.611Z,10.30
2023-03-31T03:22:34.111Z,8.75
2023-03-31T03:25:05.513Z,15.67
2023-03-31T03:27:35.887Z,16.63
2023-03-31T03:30:10.003Z,14.37
2023-03-31T03:32:41.291Z,9.80
2023-03-31T03:35:11.774Z,12.13
2023-03-31T03:37:42.211Z,15.33
2023-03-31T03:40:14.440Z,12.35
2023-03-31T03:42:44.339Z,20.60
2023-03-31T03:45:13.949Z,16.60
2023-03-31T03:47:43.874Z,20.50
2023-03-31T03:50:16.207Z,23.14
2023-03-31T03:52:46.875Z,19.45
2023-03-31T03:55:17.779Z,18.20
2023-03-31T03:57:47.619Z,21.70
2023-03-31T04:00:18.099Z,17.10
2023-03-31T04:02:48.002Z,15.53
2023-03-31T04:05:17.908Z,22.93
2023-03-31T04:07:47.782Z,13.10
2023-03-31T04:10:17.893Z,15.78
2023-03-31T04:12:47.713Z,19.23
2023-03-31T04:15:17.434Z,13.80
2023-03-31T04:17:48.969Z,16.63
2023-03-31T04:20:19.725Z,23.83
2023-03-31T04:22:50.672Z,17.90
2023-03-31T04:25:21.971Z,16.95
2023-03-31T04:27:56.021Z,19.40
2023-03-31T04:30:29.281Z,10.73
2023-03-31T04:33:01.665Z,22.05
2023-03-31T04:35:34.255Z,15.30
2023-03-31T04:38:06.410Z,9.08
2023-03-31T04:40:36.564Z,17.07
2023-03-31T04:43:06.184Z,9.63
2023-03-31T04:45:36.016Z,17.27
2023-03-31T04:48:08.066Z,17.03
2023-03-31T04:50:38.414Z,16.23
2023-03-31T04:53:08.767Z,17.93
2023-03-31T04:55:38.845Z,12.97
2023-03-31T04:58:10.960Z,13.10
2023-03-31T05:00:40.802Z,12.80
2023-03-31T05:03:10.686Z,12.67
2023-03-31T05:05:40.743Z,16.83
2023-03-31T05:08:11.956Z,14.10
2023-03-31T05:10:41.780Z,18.03
2023-03-31T05:13:12.381Z,16.80
2023-03-31T05:15:43.887Z,17.10
2023-03-31T05:18:13.669Z,20.97
2023-03-31T05:20:43.469Z,15.07
2023-03-31T05:23:14.134Z,16.12
2023-03-31T05:25:43.953Z,16.73
2023-03-31T05:28:13.750Z,14.98
2023-03-31T05:30:43.929Z,11.50
2023-03-31T05:33:14.398Z,18.60
2023-03-31T05:35:45.282Z,23.30
2023-03-31T05:38:14.972Z,16.47
2023-03-31T05:40:44.750Z,11.30
2023-03-31T05:43:14.648Z,20.87
2023-03-31T05:45:44.475Z,15.07
2023-03-31T05:48:13.972Z,9.88
2023-03-31T05:50:44.152Z,12.10
2023-03-31T05:53:14.205Z,12.90
2023-03-31T05:55:44.021Z,8.77
2023-03-31T05:58:13.835Z,12.63
2023-03-31T06:00:44.538Z,17.40
2023-03-31T06:03:14.869Z,10.23
2023-03-31T06:05:49.488Z,14.53
2023-03-31T06:08:19.061Z,8.73
2023-03-31T06:10:48.871Z,5.97
2023-03-31T06:13:18.666Z,12.63
2023-03-31T06:16:01.795Z,7.37
2023-03-31T06:18:33.720Z,8.03
2023-03-31T06:21:03.941Z,8.43
2023-03-31T06:23:34.689Z,5.53
2023-03-31T06:26:08.760Z,9.60
2023-03-31T06:28:38.570Z,7.47
2023-03-31T06:31:12.634Z,9.27
2023-03-31T06:33:44.091Z,5.95
2023-03-31T06:36:16.404Z,10.70
2023-03-31T06:38:46.934Z,5.85
2023-03-31T06:41:18.342Z,3.33
2023-03-31T06:43:48.260Z,6.23
2023-03-31T06:46:19.471Z,8.50
2023-03-31T06:48:49.311Z,9.40
2023-03-31T06:51:19.312Z,5.65
2023-03-31T06:53:49.231Z,9.83
2023-03-31T06:56:18.753Z,6.47
2023-03-31T06:58:48.692Z,11.60
2023-03-31T07:01:18.552Z,8.50
2023-03-31T07:03:48.501Z,6.93
2023-03-31T07:06:18.392Z,12.47
2023-03-31T07:08:48.265Z,8.10
2023-03-31T07:11:21.060Z,13.07
2023-03-31T07:13:49.604Z,5.70
2023-03-31T07:16:19.190Z,8.13
2023-03-31T07:18:50.366Z,8.20
2023-03-31T07:21:20.194Z,13.43
2023-03-31T07:23:50.029Z,7.90
2023-03-31T07:26:19.816Z,5.60
2023-03-31T07:28:49.721Z,8.00
2023-03-31T07:31:19.844Z,6.87
2023-03-31T07:33:49.604Z,6.23
2023-03-31T07:36:19.391Z,6.03
2023-03-31T07:38:49.762Z,7.43
2023-03-31T07:41:21.707Z,6.20
2023-03-31T07:43:51.990Z,6.97
2023-03-31T07:46:24.964Z,7.40
2023-03-31T07:48:56.803Z,6.87
2023-03-31T07:51:27.834Z,5.00
2023-03-31T07:53:57.745Z,8.33
2023-03-31T07:56:27.855Z,8.90
2023-03-31T07:58:57.975Z,9.23
2023-03-31T08:01:29.790Z,10.15
2023-03-31T08:03:59.786Z,9.30
2023-03-31T08:06:30.047Z,8.33
2023-03-31T08:09:00.749Z,10.18
2023-03-31T08:11:30.881Z,6.93
2023-03-31T08:14:00.913Z,13.33
2023-03-31T08:16:30.835Z,13.43
2023-03-31T08:19:01.467Z,11.20
2023-03-31T08:21:32.095Z,14.20
2023-03-31T08:24:02.072Z,10.40
2023-03-31T08:26:32.844Z,12.53
2023-03-31T08:29:04.103Z,13.60
2023-03-31T08:31:34.083Z,21.93
2023-03-31T08:34:05.494Z,15.13
2023-03-31T08:36:36.117Z,14.80
2023-03-31T08:39:07.462Z,17.37
2023-03-31T08:41:52.135Z,19.53
2023-03-31T08:44:39.407Z,15.37
2023-03-31T08:47:12.271Z,16.17
2023-03-31T08:49:54.283Z,13.00
2023-03-31T08:52:29.964Z,14.00
2023-03-31T08:55:06.590Z,15.63
2023-03-31T08:57:44.314Z,21.12
2023-03-31T09:00:19.515Z,17.45
2023-03-31T09:02:55.512Z,19.63
2023-03-31T09:05:43.400Z,21.63
2023-03-31T09:08:19.353Z,16.65
2023-03-31T09:10:51.913Z,20.40
2023-03-31T09:13:47.566Z,15.13
2023-03-31T09:16:19.425Z,15.43
2023-03-31T09:18:49.277Z,23.70
2023-03-31T09:21:34.026Z,19.80
2023-03-31T09:24:08.104Z,17.13
2023-03-31T09:26:41.111Z,15.80
2023-03-31T09:29:30.047Z,17.35
2023-03-31T09:32:17.279Z,27.80
2023-03-31T09:34:49.630Z,16.83
2023-03-31T09:37:19.497Z,19.80
2023-03-31T09:39:49.549Z,13.17
2023-03-31T09:42:19.859Z,17.30
2023-03-31T09:44:50.573Z,18.77
2023-03-31T09:47:36.986Z,16.50
2023-03-31T09:50:10.478Z,21.80
2023-03-31T09:52:45.997Z,19.07
2023-03-31T09:55:39.568Z,19.50
2023-03-31T09:58:07.330Z,14.90
2023-03-31T10:00:39.422Z,12.60
2023-03-31T10:03:12.702Z,11.88
2023-03-31T10:05:51.255Z,12.15
2023-03-31T10:08:30.246Z,19.57
2023-03-31T10:11:07.003Z,20.60
2023-03-31T10:13:42.621Z,17.40
2023-03-31T10:16:15.228Z,12.65
2023-03-31T10:18:45.340Z,13.93
2023-03-31T10:21:27.016Z,16.20
2023-03-31T10:23:58.354Z,13.93
2023-03-31T10:26:29.717Z,16.85
2023-03-31T10:28:59.492Z,8.20
2023-03-31T10:31:37.725Z,15.07
2023-03-31T10:34:16.492Z,18.30
2023-03-31T10:36:49.120Z,12.77
2023-03-31T10:39:20.187Z,13.90
2023-03-31T10:41:54.616Z,14.70
2023-03-31T10:44:37.034Z,15.43
2023-03-31T10:47:12.683Z,11.33
2023-03-31T10:49:44.220Z,13.32
2023-03-31T10:52:19.951Z,13.92
2023-03-31T10:54:52.591Z,16.63
2023-03-31T10:57:26.558Z,16.05
2023-03-31T11:00:15.092Z,11.22
2023-03-31T11:02:51.200Z,14.73
2023-03-31T11:05:25.335Z,10.18
2023-03-31T11:08:04.153Z,19.00
2023-03-31T11:10:54.476Z,13.80
2023-03-31T11:13:39.209Z,10.60
2023-03-31T11:18:57.036Z,15.40
2023-03-31T11:21:35.577Z,16.70
2023-03-31T11:24:20.565Z,11.33
2023-03-31T11:27:09.229Z,8.85
2023-03-31T11:29:45.398Z,10.70
2023-03-31T11:32:31.511Z,9.58
2023-03-31T11:35:09.840Z,17.07
2023-03-31T11:37:53.907Z,12.03
2023-03-31T11:40:29.349Z,13.20
2023-03-31T11:43:08.138Z,10.53
2023-03-31T11:45:41.137Z,12.97
2023-03-31T11:48:15.942Z,9.65
2023-03-31T11:50:48.073Z,9.78
2023-03-31T11:53:23.626Z,10.17
2023-03-31T11:55:56.341Z,13.97
2023-03-31T11:58:40.920Z,11.37
2023-03-31T12:01:28.040Z,12.07
2023-03-31T12:04:09.818Z,9.27
2023-03-31T12:06:42.962Z,9.97
2023-03-31T12:09:24.501Z,14.57
2023-03-31T12:12:06.230Z,14.53
2023-03-31T12:14:55.635Z,13.13
2023-03-31T12:17:29.146Z,13.73
2023-03-31T12:20:04.789Z,8.70
2023-03-31T12:22:38.913Z,12.35
2023-03-31T12:25:13.301Z,17.13
2023-03-31T12:27:44.787Z,10.07
2023-03-31T12:30:23.121Z,11.55
2023-03-31T12:32:56.405Z,16.95
2023-03-31T12:35:49.829Z,13.93
2023-03-31T12:38:58.122Z,9.60
2023-03-31T12:41:33.721Z,9.43
2023-03-31T12:44:25.298Z,10.97
2023-03-31T12:47:09.933Z,9.50
2023-03-31T12:50:16.714Z,10.27
2023-03-31T12:53:18.308Z,9.10
2023-03-31T12:55:53.732Z,7.03
2023-03-31T12:58:33.541Z,14.83
2023-03-31T13:01:12.302Z,8.95
2023-03-31T13:03:45.635Z,7.13
2023-03-31T13:06:30.408Z,8.00
2023-03-31T13:09:07.502Z,8.48
2023-03-31T13:11:40.509Z,7.13
2023-03-31T13:14:27.147Z,9.38
2023-03-31T13:17:14.369Z,6.10
2023-03-31T13:19:46.004Z,9.47
2023-03-31T13:22:35.763Z,10.27
2023-03-31T13:25:29.307Z,4.78
2023-03-31T13:28:01.795Z,10.60
2023-03-31T13:30:43.170Z,11.63
2023-03-31T13:33:35.399Z,13.95
2023-03-31T13:36:24.922Z,10.70
2023-03-31T13:39:18.846Z,7.57
2023-03-31T13:42:03.790Z,13.23
2023-03-31T13:44:42.099Z,5.55
2023-03-31T13:47:31.436Z,8.63
2023-03-31T13:50:21.959Z,8.23
2023-03-31T13:52:58.064Z,9.00
2023-03-31T13:55:46.670Z,8.30
2023-03-31T13:58:33.683Z,11.47
2023-03-31T14:01:23.533Z,9.47
2023-03-31T14:04:08.116Z,8.95
2023-03-31T14:06:52.395Z,8.00
2023-03-31T14:09:36.488Z,7.90
2023-03-31T14:12:23.979Z,6.80
2023-03-31T14:14:56.805Z,7.47
2023-03-31T14:17:29.559Z,5.27
2023-03-31T14:20:04.351Z,5.37
2023-03-31T14:22:57.955Z,6.47
2023-03-31T14:25:54.730Z,2.93
2023-03-31T14:28:36.351Z,7.50
2023-03-31T14:31:37.427Z,5.75
2023-03-31T14:34:19.401Z,8.98
2023-03-31T14:37:14.308Z,7.40
2023-03-31T14:39:47.562Z,4.50
2023-03-31T14:42:20.623Z,5.60
2023-03-31T14:44:50.410Z,5.60
2023-03-31T14:47:26.133Z,3.73
2023-03-31T14:50:18.815Z,7.85
2023-03-31T14:52:50.934Z,5.85
2023-03-31T14:55:31.753Z,9.43
2023-03-31T14:58:01.463Z,3.87
2023-03-31T15:00:33.755Z,7.67
2023-03-31T15:03:07.183Z,2.80
2023-03-31T15:05:39.279Z,7.13
2023-03-31T15:08:17.170Z,6.70
2023-03-31T15:10:54.077Z,7.90
2023-03-31T15:13:31.036Z,5.13
2023-03-31T15:16:01.208Z,5.90
2023-03-31T15:18:30.871Z,3.33
2023-03-31T15:21:00.981Z,4.03
2023-03-31T15:23:30.987Z,4.27
2023-03-31T15:26:08.965Z,6.35
2023-03-31T15:28:42.746Z,4.47
2023-03-31T15:31:14.369Z,4.77
2023-03-31T15:33:44.842Z,10.48
2023-03-31T15:36:15.947Z,4.97
2023-03-31T15:38:46.325Z,4.97
2023-03-31T15:41:18.011Z,6.05
2023-03-31T15:43:53.049Z,3.85
2023-03-31T15:46:28.257Z,13.30
2023-03-31T15:48:58.413Z,1.50
2023-03-31T15:51:42.313Z,5.20
2023-03-31T15:54:31.753Z,2.58
2023-03-31T15:57:03.501Z,3.13
2023-03-31T15:59:55.434Z,3.63
2023-03-31T16:02:29.281Z,1.25
2023-03-31T16:05:02.779Z,1.23
2023-03-31T16:07:35.476Z,2.10
2023-03-31T16:10:22.139Z,1.20
2023-03-31T16:12:57.573Z,3.02
2023-03-31T16:15:36.044Z,1.67
2023-03-31T16:18:12.118Z,2.90
2023-03-31T16:20:46.057Z,2.35
2023-03-31T16:23:21.975Z,3.80
2023-03-31T16:25:52.531Z,1.25
2023-03-31T16:28:26.088Z,1.37
2023-03-31T16:30:56.220Z,2.17
2023-03-31T16:33:26.543Z,3.37
2023-03-31T16:35:57.549Z,1.43
2023-03-31T16:38:29.837Z,1.25
2023-03-31T16:41:00.688Z,2.43
2023-03-31T16:43:31.757Z,3.05
2023-03-31T16:46:03.982Z,5.00
2023-03-31T16:48:34.694Z,2.10
2023-03-31T16:51:04.968Z,3.17
2023-03-31T16:53:37.122Z,7.75
2023-03-31T16:56:08.772Z,1.57
2023-03-31T16:58:40.520Z,1.60
2023-03-31T17:01:12.463Z,3.05
2023-03-31T17:03:43.185Z,1.30
2023-03-31T17:06:14.872Z,2.17
2023-03-31T17:08:44.679Z,1.50
2023-03-31T17:11:15.925Z,1.43
2023-03-31T17:13:46.486Z,3.63
2023-03-31T17:16:24.444Z,2.05
2023-03-31T17:18:49.811Z,3.10
2023-03-31T17:21:21.863Z,3.47
2023-03-31T17:23:52.286Z,7.50
2023-03-31T17:26:22.446Z,1.55
2023-03-31T17:28:52.578Z,2.08
2023-03-31T17:31:24.336Z,3.95
2023-03-31T17:33:54.470Z,4.45
2023-03-31T17:36:24.338Z,4.77
2023-03-31T17:38:55.206Z,4.65
2023-03-31T17:41:25.253Z,3.57
2023-03-31T17:43:59.011Z,4.40
2023-03-31T17:46:29.068Z,4.28
2023-03-31T17:48:59.553Z,2.60
2023-03-31T17:51:29.087Z,4.85
2023-03-31T17:53:59.230Z,4.10
2023-03-31T17:56:29.305Z,4.83
2023-03-31T17:58:59.409Z,2.33
2023-03-31T18:01:29.605Z,6.45
2023-03-31T18:03:59.505Z,3.80
2023-03-31T18:06:29.301Z,8.93
2023-03-31T18:08:59.102Z,7.00
2023-03-31T18:11:29.336Z,2.57
2023-03-31T18:14:01.141Z,5.08
2023-03-31T18:16:32.080Z,3.85
2023-03-31T18:19:02.076Z,7.10
2023-03-31T18:21:31.865Z,6.50
2023-03-31T18:24:02.652Z,2.87
2023-03-31T18:26:32.569Z,6.95
2023-03-31T18:29:02.983Z,5.75
2023-03-31T18:31:32.904Z,6.37
2023-03-31T18:34:02.805Z,4.13
2023-03-31T18:36:32.966Z,3.70
2023-03-31T18:39:04.029Z,8.43
2023-03-31T18:41:33.810Z,3.05
2023-03-31T18:44:03.696Z,4.23
2023-03-31T18:46:33.643Z,5.77
2023-03-31T18:49:03.638Z,2.43
2023-03-31T18:51:33.465Z,8.07
2023-03-31T18:54:03.640Z,5.97
2023-03-31T18:56:33.492Z,6.53
2023-03-31T18:59:04.829Z,7.20
2023-03-31T19:01:36.308Z,6.30
2023-03-31T19:04:06.321Z,4.27
2023-03-31T19:06:36.437Z,5.30
2023-03-31T19:09:06.324Z,6.33
2023-03-31T19:11:36.501Z,5.30
2023-03-31T19:14:06.725Z,7.15
2023-03-31T19:16:38.305Z,3.63
2023-03-31T19:19:08.179Z,5.70
2023-03-31T19:21:38.628Z,4.47
2023-03-31T19:24:09.161Z,3.43
2023-03-31T19:26:39.645Z,3.90
2023-03-31T19:29:09.730Z,3.70
2023-03-31T19:31:40.657Z,3.30
2023-03-31T19:34:11.739Z,3.93
2023-03-31T19:36:41.829Z,5.85
2023-03-31T19:39:12.067Z,3.90
2023-03-31T19:41:41.939Z,5.90
2023-03-31T19:44:13.454Z,3.73
2023-03-31T19:46:43.393Z,5.53
2023-03-31T19:49:13.476Z,4.93
2023-03-31T19:51:43.364Z,2.83
2023-03-31T19:54:15.320Z,8.13
2023-03-31T19:56:45.788Z,6.40
2023-03-31T19:59:16.018Z,6.87
2023-03-31T20:01:46.099Z,3.43
2023-03-31T20:04:18.031Z,6.83
2023-03-31T20:06:49.589Z,3.50
2023-03-31T20:09:19.539Z,8.30
2023-03-31T20:11:49.511Z,5.93
2023-03-31T20:14:19.412Z,6.08
2023-03-31T20:16:50.991Z,5.77
2023-03-31T20:19:22.366Z,9.20
2023-03-31T20:21:55.256Z,8.78
2023-03-31T20:24:27.193Z,8.65
2023-03-31T20:26:57.292Z,7.53
2023-03-31T20:29:27.415Z,10.32
2023-03-31T20:31:57.349Z,7.20
2023-03-31T20:34:27.545Z,7.45
2023-03-31T20:36:57.251Z,10.00
2023-03-31T20:39:27.359Z,10.13
2023-03-31T20:41:57.161Z,11.57
2023-03-31T20:44:27.636Z,9.38
2023-03-31T20:46:59.027Z,7.83
2023-03-31T20:49:29.241Z,5.40
2023-03-31T20:51:59.520Z,7.50
2023-03-31T20:54:29.680Z,7.78
2023-03-31T20:57:01.188Z,7.57
2023-03-31T20:59:31.398Z,8.23
2023-03-31T21:02:01.197Z,8.83
2023-03-31T21:04:30.867Z,8.10
2023-03-31T21:07:01.059Z,12.50
2023-03-31T21:09:31.342Z,9.88
2023-03-31T21:12:02.659Z,10.97
2023-03-31T21:14:33.101Z,11.28
2023-03-31T21:17:03.170Z,9.23
2023-03-31T21:19:33.386Z,12.70
2023-03-31T21:22:03.189Z,7.33
2023-03-31T21:24:33.323Z,8.15
2023-03-31T21:27:03.192Z,10.00
2023-03-31T21:29:33.762Z,9.35
2023-03-31T21:32:03.646Z,14.97
2023-03-31T21:34:33.800Z,14.18
2023-03-31T21:37:03.576Z,9.20
2023-03-31T21:39:33.702Z,12.30
2023-03-31T21:42:04.430Z,8.83
2023-03-31T21:44:34.491Z,7.78
2023-03-31T21:47:04.364Z,7.33
2023-03-31T21:49:34.498Z,7.28
2023-03-31T21:52:05.156Z,3.97
2023-03-31T21:54:35.371Z,10.60
2023-03-31T21:57:05.206Z,13.60
2023-03-31T21:59:35.397Z,9.35
2023-03-31T22:02:06.235Z,11.10
2023-03-31T22:04:36.659Z,9.25
2023-03-31T22:07:06.848Z,8.03
2023-03-31T22:09:37.115Z,8.63
2023-03-31T22:12:07.059Z,8.37
2023-03-31T22:14:38.530Z,10.93
2023-03-31T22:17:08.354Z,12.60
2023-03-31T22:19:38.234Z,9.57
2023-03-31T22:22:08.706Z,10.07
2023-03-31T22:24:38.523Z,7.93
2023-03-31T22:27:08.468Z,8.83
2023-03-31T22:29:38.287Z,11.60
2023-03-31T22:32:08.210Z,14.10
2023-03-31T22:34:38.014Z,10.07
2023-03-31T22:37:07.840Z,12.43
2023-03-31T22:39:37.646Z,10.47
2023-03-31T22:42:07.687Z,7.33
2023-03-31T22:44:40.114Z,13.40
2023-03-31T22:47:10.340Z,12.07
2023-03-31T22:49:40.718Z,14.98
2023-03-31T22:52:10.958Z,8.67
2023-03-31T22:54:41.186Z,8.67
2023-03-31T22:57:11.630Z,8.30
2023-03-31T22:59:41.935Z,13.00
2023-03-31T23:02:11.737Z,8.23
2023-03-31T23:04:41.734Z,9.57
2023-03-31T23:07:11.722Z,10.20
2023-03-31T23:09:41.598Z,8.30
2023-03-31T23:12:11.447Z,10.37
2023-03-31T23:14:41.259Z,12.07
2023-03-31T23:17:11.260Z,6.57
2023-03-31T23:19:41.709Z,9.83
2023-03-31T23:22:11.542Z,9.37
2023-03-31T23:24:41.642Z,6.33
2023-03-31T23:27:11.542Z,8.83
2023-03-31T23:29:41.430Z,8.70
2023-03-31T23:32:14.550Z,8.48
2023-03-31T23:34:44.450Z,5.67
2023-03-31T23:37:15.563Z,8.17
2023-03-31T23:39:45.522Z,5.23
2023-03-31T23:42:18.258Z,8.93
2023-03-31T23:44:48.282Z,5.30
2023-03-31T23:47:18.085Z,7.03
2023-03-31T23:49:47.891Z,5.50
2023-03-31T23:52:19.047Z,9.13
2023-03-31T23:54:48.854Z,6.07
2023-03-31T23:57:21.111Z,5.78
2023-03-31T23:59:52.322Z,6.87
